createdAt,value
2023-07-14T00:01:47.484Z,100203.53
2023-07-14T00:04:18.784Z,100185.50
2023-07-14T00:06:47.727Z,100186.72
2023-07-14T00:09:23.540Z,100181.19
2023-07-14T00:11:52.912Z,100176.91
2023-07-14T00:14:20.901Z,100184.06
2023-07-14T00:16:49.500Z,100179.38
2023-07-14T00:19:20.003Z,100173.59
2023-07-14T00:21:49.129Z,100176.06
2023-07-14T00:24:18.590Z,100175.06
2023-07-14T00:26:50.219Z,100164.22
2023-07-14T00:29:34.209Z,100166.25
2023-07-14T00:32:02.240Z,100169.94
2023-07-14T00:34:30.668Z,100172.16
2023-07-14T00:36:58.634Z,100182.63
2023-07-14T00:39:27.845Z,100188.34
2023-07-14T00:41:56.336Z,100192.44
2023-07-14T00:44:26.289Z,100185.47
2023-07-14T00:46:54.484Z,100186.63
2023-07-14T00:49:30.025Z,100194.78
2023-07-14T00:52:02.908Z,100201.41
2023-07-14T00:54:31.690Z,100207.97
2023-07-14T00:56:59.990Z,100206.34
2023-07-14T00:59:35.186Z,100224.13
2023-07-14T01:02:21.649Z,100233.38
2023-07-14T01:04:53.978Z,100221.72
2023-07-14T01:07:28.921Z,100222.34
2023-07-14T01:09:59.988Z,100211.06
2023-07-14T01:12:31.986Z,100207.16
2023-07-14T01:15:02.921Z,100198.84
2023-07-14T01:17:30.936Z,100204.16
2023-07-14T01:20:01.660Z,100202.91
2023-07-14T01:22:40.954Z,100200.72
2023-07-14T01:25:20.690Z,100206.72
2023-07-14T01:27:50.679Z,100218.03
2023-07-14T01:30:20.721Z,100233.91
2023-07-14T01:32:50.474Z,100231.06
2023-07-14T01:35:20.692Z,100232.09
2023-07-14T01:37:48.686Z,100232.97
2023-07-14T01:40:19.723Z,100240.75
2023-07-14T01:42:53.913Z,100253.63
2023-07-14T01:45:22.783Z,100256.47
2023-07-14T01:47:57.128Z,100263.44
2023-07-14T01:50:31.783Z,100280.41
2023-07-14T01:53:07.175Z,100295.72
2023-07-14T01:55:37.474Z,100315.03
2023-07-14T01:58:12.210Z,100304.28
2023-07-14T02:00:42.747Z,100310.75
2023-07-14T02:03:15.059Z,100309.50
2023-07-14T02:05:43.128Z,100305.63
2023-07-14T02:08:19.146Z,100289.91
2023-07-14T02:10:47.396Z,100310.50
2023-07-14T02:13:17.192Z,100301.94
2023-07-14T02:15:45.875Z,100307.44
2023-07-14T02:18:18.328Z,100307.44
2023-07-14T02:20:48.938Z,100299.41
2023-07-14T02:23:21.921Z,100305.19
2023-07-14T02:26:06.968Z,100305.81
2023-07-14T02:28:36.341Z,100307.44
2023-07-14T02:31:14.118Z,100319.47
2023-07-14T02:33:45.450Z,100346.69
2023-07-14T02:36:24.123Z,100338.63
2023-07-14T02:38:52.091Z,100342.50
2023-07-14T02:41:24.935Z,100360.16
2023-07-14T02:43:56.798Z,100367.44
2023-07-14T02:46:29.221Z,100377.47
2023-07-14T02:48:57.319Z,100385.25
2023-07-14T02:51:25.285Z,100388.75
2023-07-14T02:53:53.268Z,100391.78
2023-07-14T02:56:21.659Z,100410.31
2023-07-14T02:58:51.510Z,100399.88
2023-07-14T03:01:21.960Z,100418.38
2023-07-14T03:03:50.150Z,100413.50
2023-07-14T03:06:20.840Z,100402.00
2023-07-14T03:08:48.882Z,100398.97
2023-07-14T03:11:16.843Z,100403.47
2023-07-14T03:13:45.271Z,100388.44
2023-07-14T03:16:13.291Z,100407.13
2023-07-14T03:18:42.691Z,100422.78
2023-07-14T03:21:11.134Z,100434.94
2023-07-14T03:23:39.393Z,100436.88
2023-07-14T03:26:09.607Z,100436.69
2023-07-14T03:28:39.203Z,100436.44
2023-07-14T03:31:07.637Z,100432.03
2023-07-14T03:33:36.259Z,100426.41
2023-07-14T03:36:07.441Z,100441.69
2023-07-14T03:38:44.054Z,100445.06
2023-07-14T03:41:13.095Z,100458.63
2023-07-14T03:43:41.657Z,100488.75
2023-07-14T03:46:09.929Z,100511.00
2023-07-14T03:48:38.034Z,100520.63
2023-07-14T03:51:07.721Z,100551.22
2023-07-14T03:53:36.399Z,100559.19
2023-07-14T03:56:04.403Z,100565.88
2023-07-14T03:58:32.383Z,100568.16
2023-07-14T04:01:01.635Z,100589.34
2023-07-14T04:03:29.896Z,100621.13
2023-07-14T04:05:57.920Z,100641.47
2023-07-14T04:08:27.300Z,100663.28
2023-07-14T04:10:55.238Z,100721.50
2023-07-14T04:13:23.178Z,100782.97
2023-07-14T04:15:51.168Z,100849.41
2023-07-14T04:18:19.146Z,100848.34
2023-07-14T04:23:15.674Z,100593.53
2023-07-14T04:25:45.832Z,100648.44
2023-07-14T04:28:13.784Z,100697.28
2023-07-14T04:30:41.812Z,100661.25
2023-07-14T04:33:11.203Z,100657.78
2023-07-14T04:35:39.131Z,100666.88
2023-07-14T04:38:07.936Z,100672.91
2023-07-14T04:40:37.856Z,100670.72
2023-07-14T04:43:07.215Z,100658.84
2023-07-14T04:45:39.690Z,100682.66
2023-07-14T04:48:08.074Z,100690.81
2023-07-14T04:50:36.427Z,100687.03
2023-07-14T04:53:06.692Z,100685.38
2023-07-14T04:55:37.813Z,100707.38
2023-07-14T04:58:07.258Z,100711.59
2023-07-14T05:00:36.909Z,100684.09
2023-07-14T05:03:05.896Z,100687.69
2023-07-14T05:05:34.605Z,100682.44
2023-07-14T05:08:02.650Z,100673.72
2023-07-14T05:10:32.971Z,100679.28
2023-07-14T05:13:01.275Z,100668.41
2023-07-14T05:15:30.693Z,100664.31
2023-07-14T05:17:59.021Z,100673.75
2023-07-14T05:20:27.090Z,100681.28
2023-07-14T05:22:56.062Z,100669.50
2023-07-14T05:25:24.443Z,100679.25
2023-07-14T05:27:52.426Z,100692.47
2023-07-14T05:30:22.943Z,100682.34
2023-07-14T05:32:52.478Z,100694.34
2023-07-14T05:35:20.823Z,100703.03
2023-07-14T05:37:48.991Z,100708.53
2023-07-14T05:40:19.002Z,100702.81
2023-07-14T05:42:47.041Z,100721.84
2023-07-14T05:45:15.950Z,100719.28
2023-07-14T05:47:47.190Z,100711.03
2023-07-14T05:50:17.288Z,100709.63
2023-07-14T05:52:45.644Z,100691.63
2023-07-14T05:55:13.768Z,100676.84
2023-07-14T05:57:41.820Z,100673.13
2023-07-14T06:00:14.697Z,100677.28
2023-07-14T06:02:43.898Z,100688.72
2023-07-14T06:05:13.612Z,100676.00
2023-07-14T06:07:43.629Z,100676.28
2023-07-14T06:10:13.360Z,100686.09
2023-07-14T06:12:41.305Z,100681.53
2023-07-14T06:15:10.110Z,100688.47
2023-07-14T06:17:39.163Z,100687.38
2023-07-14T06:20:13.075Z,100691.03
2023-07-14T06:22:43.611Z,100687.31
2023-07-14T06:25:11.638Z,100683.00
2023-07-14T06:27:39.617Z,100676.16
2023-07-14T06:30:10.023Z,100680.91
2023-07-14T06:32:38.424Z,100678.81
2023-07-14T06:35:07.694Z,100664.72
2023-07-14T06:37:35.757Z,100663.69
2023-07-14T06:40:06.168Z,100676.41
2023-07-14T06:42:34.383Z,100678.00
2023-07-14T06:45:02.927Z,100678.00
2023-07-14T06:47:30.916Z,100682.38
2023-07-14T06:49:58.964Z,100677.44
2023-07-14T06:52:27.003Z,100666.28
2023-07-14T06:54:55.201Z,100649.22
2023-07-14T06:57:24.592Z,100652.88
2023-07-14T06:59:52.570Z,100654.91
2023-07-14T07:02:20.790Z,100656.72
2023-07-14T07:04:48.854Z,100640.19
2023-07-14T07:07:16.809Z,100636.09
2023-07-14T07:09:44.767Z,100642.78
2023-07-14T07:12:12.769Z,100637.88
2023-07-14T07:14:42.105Z,100644.31
2023-07-14T07:17:10.222Z,100654.13
2023-07-14T07:19:38.289Z,100644.47
2023-07-14T07:22:09.178Z,100647.00
2023-07-14T07:24:37.182Z,100642.53
2023-07-14T07:27:05.972Z,100640.03
2023-07-14T07:29:33.992Z,100640.78
2023-07-14T07:32:04.579Z,100646.34
2023-07-14T07:34:32.591Z,100649.72
2023-07-14T07:37:00.562Z,100642.94
2023-07-14T07:39:29.002Z,100671.59
2023-07-14T07:41:57.005Z,100674.84
2023-07-14T07:44:25.179Z,100679.66
2023-07-14T07:46:53.204Z,100681.28
2023-07-14T07:49:22.587Z,100674.91
2023-07-14T07:51:50.615Z,100674.94
2023-07-14T07:54:18.594Z,100669.50
2023-07-14T07:56:46.569Z,100672.09
2023-07-14T07:59:16.746Z,100672.53
2023-07-14T08:01:46.876Z,100667.81
2023-07-14T08:04:15.912Z,100662.44
2023-07-14T08:06:45.618Z,100668.56
2023-07-14T08:09:14.253Z,100668.19
2023-07-14T08:11:42.245Z,100669.78
2023-07-14T08:14:13.936Z,100665.00
2023-07-14T08:16:41.939Z,100665.84
2023-07-14T08:19:10.201Z,100673.94
2023-07-14T08:21:39.564Z,100678.84
2023-07-14T08:24:10.555Z,100677.53
2023-07-14T08:26:39.938Z,100675.22
2023-07-14T08:29:11.553Z,100672.31
2023-07-14T08:31:39.535Z,100677.00
2023-07-14T08:34:08.996Z,100673.34
2023-07-14T08:36:37.963Z,100673.72
2023-07-14T08:39:05.922Z,100660.56
2023-07-14T08:41:39.835Z,100668.38
2023-07-14T08:44:35.385Z,100662.41
2023-07-14T08:47:11.661Z,100664.31
2023-07-14T08:49:48.961Z,100656.09
2023-07-14T08:52:24.459Z,100650.59
2023-07-14T08:54:57.820Z,100652.44
2023-07-14T08:57:29.573Z,100642.06
2023-07-14T09:00:01.463Z,100640.63
2023-07-14T09:02:43.139Z,100642.22
2023-07-14T09:05:16.688Z,100632.88
2023-07-14T09:07:45.069Z,100634.00
2023-07-14T09:10:13.897Z,100640.78
2023-07-14T09:12:52.468Z,100626.75
2023-07-14T09:15:24.815Z,100633.75
2023-07-14T09:18:03.714Z,100624.56
2023-07-14T09:21:01.255Z,100628.19
2023-07-14T09:23:54.527Z,100622.47
2023-07-14T09:26:31.963Z,100615.50
2023-07-14T09:29:09.565Z,100613.94
2023-07-14T09:31:46.044Z,100612.97
2023-07-14T09:34:23.605Z,100609.22
2023-07-14T09:36:53.385Z,100606.00
2023-07-14T09:39:29.346Z,100590.16
2023-07-14T09:42:01.395Z,100612.97
2023-07-14T09:44:31.376Z,100611.56
2023-07-14T09:47:01.692Z,100607.16
2023-07-14T09:49:38.350Z,100611.13
2023-07-14T09:52:15.856Z,100607.09
2023-07-14T09:54:51.191Z,100576.72
2023-07-14T09:57:33.662Z,100599.03
2023-07-14T10:00:21.494Z,100607.16
2023-07-14T10:03:03.727Z,100596.88
2023-07-14T10:05:49.263Z,100597.97
2023-07-14T10:08:34.661Z,100589.31
2023-07-14T10:11:17.229Z,100592.28
2023-07-14T10:13:46.847Z,100591.75
2023-07-14T10:16:18.628Z,100589.56
2023-07-14T10:18:49.985Z,100587.66
2023-07-14T10:21:24.709Z,100589.56
2023-07-14T10:24:06.449Z,100586.09
2023-07-14T10:26:37.001Z,100572.22
2023-07-14T10:29:07.675Z,100575.22
2023-07-14T10:31:43.016Z,100578.19
2023-07-14T10:34:45.360Z,100584.97
2023-07-14T10:37:23.085Z,100574.69
2023-07-14T10:39:56.804Z,100574.16
2023-07-14T10:42:31.458Z,100567.34
2023-07-14T10:45:01.029Z,100573.56
2023-07-14T10:47:34.684Z,100561.63
2023-07-14T10:50:10.549Z,100563.75
2023-07-14T10:52:43.593Z,100570.31
2023-07-14T10:55:19.014Z,100563.31
2023-07-14T10:57:51.705Z,100564.38
2023-07-14T11:00:27.754Z,100556.19
2023-07-14T11:03:21.506Z,100563.75
2023-07-14T11:05:56.642Z,100543.63
2023-07-14T11:08:26.990Z,100560.56
2023-07-14T11:11:05.083Z,100552.66
2023-07-14T11:13:43.817Z,100550.81
2023-07-14T11:16:18.740Z,100556.78
2023-07-14T11:18:58.746Z,100536.72
2023-07-14T11:21:38.120Z,100528.56
2023-07-14T11:24:19.407Z,100554.63
2023-07-14T11:27:05.754Z,100551.59
2023-07-14T11:29:40.531Z,100531.50
2023-07-14T11:32:18.678Z,100536.94
2023-07-14T11:34:59.742Z,100535.81
2023-07-14T11:37:39.683Z,100536.69
2023-07-14T11:40:21.248Z,100535.91
2023-07-14T11:42:54.399Z,100544.31
2023-07-14T11:45:25.544Z,100539.69
2023-07-14T11:47:54.517Z,100539.16
2023-07-14T11:50:40.597Z,100538.88
2023-07-14T11:53:21.835Z,100532.09
2023-07-14T11:55:53.281Z,100538.34
2023-07-14T11:58:28.025Z,100525.38
2023-07-14T12:01:01.377Z,100523.16
2023-07-14T12:03:35.874Z,100523.16
2023-07-14T12:06:45.380Z,100529.16
2023-07-14T12:09:17.846Z,100527.25
2023-07-14T12:11:53.308Z,100513.44
2023-07-14T12:14:47.152Z,100516.94
2023-07-14T12:17:47.065Z,100517.47
2023-07-14T12:20:34.975Z,100511.22
2023-07-14T12:23:28.539Z,100500.66
2023-07-14T12:26:02.835Z,100497.72
2023-07-14T12:28:34.620Z,100505.56
2023-07-14T12:31:06.331Z,100464.66
2023-07-14T12:33:34.500Z,100501.78
2023-07-14T12:36:04.910Z,100480.41
2023-07-14T12:38:34.979Z,100493.91
2023-07-14T12:41:07.653Z,100494.19
2023-07-14T12:43:40.401Z,100485.25
2023-07-14T12:46:25.582Z,100491.75
2023-07-14T12:49:02.728Z,100489.59
2023-07-14T12:51:32.887Z,100481.16
2023-07-14T12:54:05.206Z,100474.41
2023-07-14T12:56:34.428Z,100476.53
2023-07-14T12:59:03.264Z,100473.50
2023-07-14T13:01:33.398Z,100478.72
2023-07-14T13:04:03.878Z,100480.88
2023-07-14T13:06:32.112Z,100478.16
2023-07-14T13:09:11.624Z,100487.34
2023-07-14T13:11:43.113Z,100469.50
2023-07-14T13:14:22.294Z,100471.13
2023-07-14T13:16:54.182Z,100467.63
2023-07-14T13:19:25.808Z,100466.53
2023-07-14T13:21:53.932Z,100468.34
2023-07-14T13:24:27.871Z,100461.53
2023-07-14T13:26:57.747Z,100466.38
2023-07-14T13:29:28.214Z,100465.31
2023-07-14T13:31:58.771Z,100460.19
2023-07-14T13:34:30.899Z,100465.06
2023-07-14T13:37:02.508Z,100455.31
2023-07-14T13:39:35.385Z,100465.34
2023-07-14T13:42:06.437Z,100472.66
2023-07-14T13:44:40.300Z,100459.41
2023-07-14T13:47:19.313Z,100464.31
2023-07-14T13:49:48.386Z,100459.13
2023-07-14T13:52:18.638Z,100466.75
2023-07-14T13:54:55.197Z,100462.16
2023-07-14T13:57:24.770Z,100461.91
2023-07-14T13:59:53.202Z,100457.03
2023-07-14T14:02:38.436Z,100456.44
2023-07-14T14:05:13.572Z,100451.84
2023-07-14T14:07:41.748Z,100448.59
2023-07-14T14:10:19.393Z,100447.47
2023-07-14T14:12:47.788Z,100445.56
2023-07-14T14:15:17.152Z,100436.31
2023-07-14T14:17:48.277Z,100434.44
2023-07-14T14:20:20.204Z,100446.84
2023-07-14T14:22:48.734Z,100434.56
2023-07-14T14:25:20.600Z,100439.75
2023-07-14T14:27:50.689Z,100439.72
2023-07-14T14:30:19.722Z,100445.44
2023-07-14T14:32:49.676Z,100437.81
2023-07-14T14:35:27.388Z,100442.63
2023-07-14T14:37:57.164Z,100445.34
2023-07-14T14:40:28.916Z,100412.81
2023-07-14T14:43:01.712Z,100437.22
2023-07-14T14:45:30.894Z,100444.91
2023-07-14T14:47:59.244Z,100445.72
2023-07-14T14:50:27.246Z,100437.53
2023-07-14T14:52:55.553Z,100434.72
2023-07-14T14:55:23.916Z,100435.91
2023-07-14T14:57:56.744Z,100436.97
2023-07-14T15:00:28.117Z,100434.00
2023-07-14T15:02:56.131Z,100434.53
2023-07-14T15:05:26.961Z,100439.03
2023-07-14T15:07:58.377Z,100437.47
2023-07-14T15:10:28.437Z,100433.94
2023-07-14T15:12:57.962Z,100434.69
2023-07-14T15:15:29.695Z,100438.53
2023-07-14T15:17:58.986Z,100430.19
2023-07-14T15:20:27.439Z,100438.31
2023-07-14T15:22:57.431Z,100439.69
2023-07-14T15:25:26.555Z,100425.06
2023-07-14T15:27:55.197Z,100432.31
2023-07-14T15:30:27.915Z,100436.53
2023-07-14T15:32:57.383Z,100428.34
2023-07-14T15:35:27.887Z,100437.25
2023-07-14T15:37:58.420Z,100427.72
2023-07-14T15:40:28.418Z,100432.50
2023-07-14T15:42:58.335Z,100430.78
2023-07-14T15:45:28.736Z,100431.25
2023-07-14T15:47:56.866Z,100434.94
2023-07-14T15:50:27.503Z,100418.84
2023-07-14T15:52:57.730Z,100439.88
2023-07-14T15:55:31.044Z,100436.09
2023-07-14T15:57:59.016Z,100431.00
2023-07-14T16:00:28.562Z,100430.09
2023-07-14T16:02:56.996Z,100432.81
2023-07-14T16:05:25.255Z,100431.53
2023-07-14T16:07:55.635Z,100426.69
2023-07-14T16:10:24.057Z,100433.81
2023-07-14T16:12:52.169Z,100433.16
2023-07-14T16:15:24.687Z,100436.44
2023-07-14T16:17:56.787Z,100444.72
2023-07-14T16:20:28.014Z,100451.00
2023-07-14T16:23:01.571Z,100452.13
2023-07-14T16:25:31.131Z,100449.28
2023-07-14T16:27:59.264Z,100450.53
2023-07-14T16:30:30.267Z,100447.59
2023-07-14T16:33:00.867Z,100456.41
2023-07-14T16:35:30.003Z,100458.69
2023-07-14T16:38:03.319Z,100462.53
2023-07-14T16:40:35.762Z,100464.97
2023-07-14T16:43:04.512Z,100464.22
2023-07-14T16:45:33.745Z,100460.00
2023-07-14T16:48:04.471Z,100479.25
2023-07-14T16:50:33.652Z,100481.91
2023-07-14T16:53:02.498Z,100479.16
2023-07-14T16:55:32.146Z,100473.66
2023-07-14T16:58:02.997Z,100480.66
2023-07-14T17:00:34.231Z,100484.84
2023-07-14T17:03:06.115Z,100489.47
2023-07-14T17:05:35.931Z,100487.44
2023-07-14T17:08:03.950Z,100496.44
2023-07-14T17:10:33.009Z,100492.94
2023-07-14T17:13:16.063Z,100494.72
2023-07-14T17:15:49.834Z,100498.69
2023-07-14T17:18:20.896Z,100501.38
2023-07-14T17:20:50.213Z,100489.00
2023-07-14T17:23:20.627Z,100510.84
2023-07-14T17:25:48.603Z,100505.03
2023-07-14T17:28:19.234Z,100503.13
2023-07-14T17:30:51.712Z,100507.81
2023-07-14T17:33:22.897Z,100507.81
2023-07-14T17:35:53.858Z,100510.97
2023-07-14T17:38:23.892Z,100516.47
2023-07-14T17:40:51.860Z,100520.19
2023-07-14T17:43:22.001Z,100523.34
2023-07-14T17:45:50.666Z,100512.44
2023-07-14T17:48:20.998Z,100508.34
2023-07-14T17:50:52.408Z,100526.19
2023-07-14T17:53:22.978Z,100523.16
2023-07-14T17:55:51.987Z,100526.84
2023-07-14T17:58:21.886Z,100527.56
2023-07-14T18:00:51.195Z,100521.66
2023-07-14T18:03:24.621Z,100540.69
2023-07-14T18:05:53.344Z,100546.94
2023-07-14T18:08:22.925Z,100543.53
2023-07-14T18:10:54.313Z,100547.38
2023-07-14T18:13:24.881Z,100542.75
2023-07-14T18:15:52.928Z,100556.63
2023-07-14T18:18:25.208Z,100571.16
2023-07-14T18:20:56.865Z,100561.97
2023-07-14T18:23:27.131Z,100566.56
2023-07-14T18:25:55.445Z,100564.41
2023-07-14T18:28:26.404Z,100570.91
2023-07-14T18:30:55.607Z,100575.88
2023-07-14T18:33:28.260Z,100586.22
2023-07-14T18:35:57.637Z,100582.22
2023-07-14T18:38:26.634Z,100592.16
2023-07-14T18:40:56.653Z,100588.50
2023-07-14T18:43:29.684Z,100594.53
2023-07-14T18:45:58.452Z,100597.03
2023-07-14T18:48:30.662Z,100594.25
2023-07-14T18:51:07.223Z,100599.97
2023-07-14T18:53:35.201Z,100605.78
2023-07-14T18:56:03.259Z,100603.13
2023-07-14T18:58:31.247Z,100605.59
2023-07-14T19:01:02.095Z,100607.06
2023-07-14T19:03:34.338Z,100613.66
2023-07-14T19:06:03.465Z,100609.56
2023-07-14T19:08:32.356Z,100610.19
2023-07-14T19:11:02.616Z,100603.03
2023-07-14T19:13:35.062Z,100621.56
2023-07-14T19:16:03.067Z,100613.34
2023-07-14T19:18:32.623Z,100610.88
2023-07-14T19:21:06.954Z,100619.78
2023-07-14T19:23:34.901Z,100622.03
2023-07-14T19:26:02.875Z,100618.94
2023-07-14T19:28:31.885Z,100610.97
2023-07-14T19:31:00.121Z,100623.94
2023-07-14T19:33:29.480Z,100622.09
2023-07-14T19:36:01.464Z,100625.22
2023-07-14T19:38:29.911Z,100622.59
2023-07-14T19:40:59.629Z,100634.53
2023-07-14T19:43:28.776Z,100632.50
2023-07-14T19:45:59.048Z,100630.84
2023-07-14T19:48:28.193Z,100632.50
2023-07-14T19:50:59.009Z,100630.22
2023-07-14T19:53:30.342Z,100631.06
2023-07-14T19:56:00.248Z,100635.16
2023-07-14T19:58:30.971Z,100631.66
2023-07-14T20:01:00.475Z,100632.28
2023-07-14T20:03:33.493Z,100629.19
2023-07-14T20:06:03.145Z,100632.88
2023-07-14T20:08:31.411Z,100635.78
2023-07-14T20:11:02.929Z,100645.22
2023-07-14T20:13:32.781Z,100646.88
2023-07-14T20:16:02.115Z,100646.44
2023-07-14T20:18:33.188Z,100644.19
2023-07-14T20:21:02.626Z,100639.47
2023-07-14T20:23:33.080Z,100647.69
2023-07-14T20:26:04.204Z,100651.75
2023-07-14T20:28:35.048Z,100646.13
2023-07-14T20:31:04.772Z,100653.75
2023-07-14T20:33:32.811Z,100658.25
2023-07-14T20:36:02.547Z,100660.28
2023-07-14T20:38:31.206Z,100654.72
2023-07-14T20:41:01.078Z,100663.97
2023-07-14T20:43:31.428Z,100668.06
2023-07-14T20:46:00.230Z,100662.53
2023-07-14T20:48:30.415Z,100668.06
2023-07-14T20:50:59.081Z,100671.09
2023-07-14T20:53:31.032Z,100677.06
2023-07-14T20:56:00.889Z,100669.81
2023-07-14T20:58:30.619Z,100677.38
2023-07-14T21:01:00.077Z,100678.38
2023-07-14T21:03:29.884Z,100676.94
2023-07-14T21:06:00.020Z,100671.03
2023-07-14T21:08:32.268Z,100694.72
2023-07-14T21:11:03.016Z,100691.75
2023-07-14T21:13:31.204Z,100690.78
2023-07-14T21:15:59.154Z,100687.06
2023-07-14T21:18:30.872Z,100703.25
2023-07-14T21:21:00.745Z,100701.38
2023-07-14T21:23:32.240Z,100696.66
2023-07-14T21:26:02.135Z,100701.56
2023-07-14T21:28:30.291Z,100704.13
2023-07-14T21:31:01.627Z,100701.22
2023-07-14T21:33:33.192Z,100701.75
2023-07-14T21:36:01.631Z,100704.44
2023-07-14T21:38:32.801Z,100705.06
2023-07-14T21:41:03.939Z,100705.72
2023-07-14T21:43:36.714Z,100701.59
2023-07-14T21:46:05.168Z,100705.44
2023-07-14T21:48:33.593Z,100711.34
2023-07-14T21:51:06.383Z,100705.47
2023-07-14T21:53:37.435Z,100708.50
2023-07-14T21:56:06.008Z,100718.78
2023-07-14T21:58:35.054Z,100712.88
2023-07-14T22:01:18.049Z,100709.19
2023-07-14T22:03:46.053Z,100715.81
2023-07-14T22:06:15.644Z,100719.47
2023-07-14T22:08:45.185Z,100711.03
2023-07-14T22:11:14.613Z,100723.16
2023-07-14T22:13:42.757Z,100718.59
2023-07-14T22:16:15.572Z,100713.78
2023-07-14T22:18:46.867Z,100722.19
2023-07-14T22:21:17.663Z,100718.72
2023-07-14T22:23:47.265Z,100719.53
2023-07-14T22:26:18.374Z,100726.06
2023-07-14T22:28:47.511Z,100712.88
2023-07-14T22:31:19.058Z,100720.84
2023-07-14T22:33:47.890Z,100721.63
2023-07-14T22:36:18.317Z,100723.00
2023-07-14T22:38:47.636Z,100724.78
2023-07-14T22:41:23.487Z,100723.47
2023-07-14T22:43:56.998Z,100725.03
2023-07-14T22:46:25.874Z,100725.97
2023-07-14T22:48:54.137Z,100723.22
2023-07-14T22:51:27.392Z,100723.81
2023-07-14T22:53:56.787Z,100720.84
2023-07-14T22:56:25.241Z,100711.34
2023-07-14T22:58:53.857Z,100705.13
2023-07-14T23:01:26.106Z,100704.66
2023-07-14T23:03:54.196Z,100708.25
2023-07-14T23:06:24.225Z,100706.75
2023-07-14T23:08:54.134Z,100709.78
2023-07-14T23:11:25.859Z,100702.69
2023-07-14T23:13:53.860Z,100699.41
2023-07-14T23:16:24.061Z,100704.25
2023-07-14T23:18:52.512Z,100697.47
2023-07-14T23:21:23.788Z,100698.00
2023-07-14T23:23:53.372Z,100700.13
2023-07-14T23:26:25.050Z,100698.63
2023-07-14T23:28:55.084Z,100696.56
2023-07-14T23:31:26.558Z,100701.03
2023-07-14T23:33:54.827Z,100701.75
2023-07-14T23:36:24.626Z,100703.75
2023-07-14T23:38:53.422Z,100705.78
2023-07-14T23:41:26.367Z,100714.94
2023-07-14T23:43:54.743Z,100717.09
2023-07-14T23:46:24.057Z,100715.00
2023-07-14T23:48:53.245Z,100707.56
2023-07-14T23:51:30.442Z,100709.13
2023-07-14T23:53:59.997Z,100702.25
2023-07-14T23:56:30.032Z,100710.50
2023-07-14T23:58:59.077Z,100707.69
